sensor_id;sensor_type;location;lat;lon;timestamp;pressure;altitude;pressure_sealevel;temperature;humidity
72798;BME280;61084;55.816;37.036;2023-02-03T00:00:51;98693.22;;;1.61;69.49
72798;BME280;61084;55.816;37.036;2023-02-03T00:03:17;98688.03;;;1.61;69.75
72798;BME280;61084;55.816;37.036;2023-02-03T00:05:43;98691.31;;;1.66;70.03
72798;BME280;61084;55.816;37.036;2023-02-03T00:08:09;98692.97;;;1.68;69.73
72798;BME280;61084;55.816;37.036;2023-02-03T00:10:37;98692.03;;;1.71;69.76
72798;BME280;61084;55.816;37.036;2023-02-03T00:13:05;98686.88;;;1.71;69.61
72798;BME280;61084;55.816;37.036;2023-02-03T00:15:31;98694.72;;;1.68;69.59
72798;BME280;61084;55.816;37.036;2023-02-03T00:17:57;98693.78;;;1.70;69.78
72798;BME280;61084;55.816;37.036;2023-02-03T00:20:23;98688.59;;;1.72;69.68
72798;BME280;61084;55.816;37.036;2023-02-03T00:22:50;98692.91;;;1.71;69.84
72798;BME280;61084;55.816;37.036;2023-02-03T00:25:17;98696.34;;;1.72;69.42
72798;BME280;61084;55.816;37.036;2023-02-03T00:27:43;98690.31;;;1.71;70.00
72798;BME280;61084;55.816;37.036;2023-02-03T00:30:10;98687.66;;;1.73;69.57
72798;BME280;61084;55.816;37.036;2023-02-03T00:32:37;98691.06;;;1.75;70.03
72798;BME280;61084;55.816;37.036;2023-02-03T00:35:03;98690.19;;;1.76;69.67
72798;BME280;61084;55.816;37.036;2023-02-03T00:37:29;98688.41;;;1.76;69.54
72798;BME280;61084;55.816;37.036;2023-02-03T00:39:55;98690.13;;;1.77;69.87
72798;BME280;61084;55.816;37.036;2023-02-03T00:42:21;98694.44;;;1.77;69.43
72798;BME280;61084;55.816;37.036;2023-02-03T00:44:47;98681.66;;;1.72;69.84
72798;BME280;61084;55.816;37.036;2023-02-03T00:47:13;98683.25;;;1.76;69.49
72798;BME280;61084;55.816;37.036;2023-02-03T00:49:38;98689.25;;;1.78;69.90
72798;BME280;61084;55.816;37.036;2023-02-03T00:52:04;98686.69;;;1.77;69.55
72798;BME280;61084;55.816;37.036;2023-02-03T00:54:30;98683.34;;;1.73;69.58
72798;BME280;61084;55.816;37.036;2023-02-03T00:56:56;98681.56;;;1.75;69.63
72798;BME280;61084;55.816;37.036;2023-02-03T00:59:21;98691.84;;;1.77;69.44
72798;BME280;61084;55.816;37.036;2023-02-03T01:01:47;98678.94;;;1.77;69.85
72798;BME280;61084;55.816;37.036;2023-02-03T01:04:14;98684.16;;;1.75;69.92
72798;BME280;61084;55.816;37.036;2023-02-03T01:06:40;98684.09;;;1.77;69.66
72798;BME280;61084;55.816;37.036;2023-02-03T01:09:06;98680.63;;;1.78;69.92
72798;BME280;61084;55.816;37.036;2023-02-03T01:11:33;98685.88;;;1.75;69.84
72798;BME280;61084;55.816;37.036;2023-02-03T01:13:58;98679.03;;;1.74;70.13
72798;BME280;61084;55.816;37.036;2023-02-03T01:16:29;98679.91;;;1.73;70.27
72798;BME280;61084;55.816;37.036;2023-02-03T01:18:55;98679.91;;;1.73;69.59
72798;BME280;61084;55.816;37.036;2023-02-03T01:21:23;98673.94;;;1.71;70.02
72798;BME280;61084;55.816;37.036;2023-02-03T01:23:50;98679.25;;;1.66;69.89
72798;BME280;61084;55.816;37.036;2023-02-03T01:26:19;98675.72;;;1.69;70.14
72798;BME280;61084;55.816;37.036;2023-02-03T01:28:57;98680.03;;;1.70;70.27
72798;BME280;61084;55.816;37.036;2023-02-03T01:31:29;98678.22;;;1.72;69.96
72798;BME280;61084;55.816;37.036;2023-02-03T01:33:56;98673.88;;;1.74;69.68
72798;BME280;61084;55.816;37.036;2023-02-03T01:36:24;98680.03;;;1.70;70.03
72798;BME280;61084;55.816;37.036;2023-02-03T01:38:50;98678.31;;;1.69;69.86
72798;BME280;61084;55.816;37.036;2023-02-03T01:41:20;98677.50;;;1.67;69.85
72798;BME280;61084;55.816;37.036;2023-02-03T01:43:49;98671.41;;;1.69;69.71
72798;BME280;61084;55.816;37.036;2023-02-03T01:46:29;98671.34;;;1.71;70.15
72798;BME280;61084;55.816;37.036;2023-02-03T01:49:10;98676.59;;;1.69;70.08
72798;BME280;61084;55.816;37.036;2023-02-03T01:51:37;98672.22;;;1.71;70.44
72798;BME280;61084;55.816;37.036;2023-02-03T01:54:06;98667.84;;;1.73;70.27
72798;BME280;61084;55.816;37.036;2023-02-03T01:56:35;98673.00;;;1.73;70.02
72798;BME280;61084;55.816;37.036;2023-02-03T01:59:04;98672.22;;;1.71;69.89
72798;BME280;61084;55.816;37.036;2023-02-03T02:01:30;98666.19;;;1.71;70.65
72798;BME280;61084;55.816;37.036;2023-02-03T02:03:58;98670.47;;;1.72;70.49
72798;BME280;61084;55.816;37.036;2023-02-03T02:06:25;98673.88;;;1.74;70.52
72798;BME280;61084;55.816;37.036;2023-02-03T02:08:52;98666.09;;;1.74;70.53
72798;BME280;61084;55.816;37.036;2023-02-03T02:11:19;98668.63;;;1.75;70.51
72798;BME280;61084;55.816;37.036;2023-02-03T02:13:46;98674.66;;;1.76;70.64
72798;BME280;61084;55.816;37.036;2023-02-03T02:33:27;98652.97;;;1.80;70.49
72798;BME280;61084;55.816;37.036;2023-02-03T02:39:30;98654.78;;;1.78;70.66
72798;BME280;61084;55.816;37.036;2023-02-03T02:41:57;98659.03;;;1.79;70.81
72798;BME280;61084;55.816;37.036;2023-02-03T02:44:40;98661.59;;;1.80;70.56
72798;BME280;61084;55.816;37.036;2023-02-03T02:47:18;98657.25;;;1.81;70.81
72798;BME280;61084;55.816;37.036;2023-02-03T02:52:22;98653.69;;;1.85;70.44
72798;BME280;61084;55.816;37.036;2023-02-03T02:54:53;98655.38;;;1.86;70.69
72798;BME280;61084;55.816;37.036;2023-02-03T02:57:25;98653.59;;;1.88;70.56
72798;BME280;61084;55.816;37.036;2023-02-03T02:59:53;98650.13;;;1.89;70.68
72798;BME280;61084;55.816;37.036;2023-02-03T03:02:19;98645.81;;;1.88;70.87
72798;BME280;61084;55.816;37.036;2023-02-03T03:04:47;98651.81;;;1.90;70.51
72798;BME280;61084;55.816;37.036;2023-02-03T03:07:23;98648.28;;;1.92;70.46
72798;BME280;61084;55.816;37.036;2023-02-03T03:09:54;98658.63;;;1.92;70.38
72798;BME280;61084;55.816;37.036;2023-02-03T03:12:30;98650.13;;;1.89;70.72
72798;BME280;61084;55.816;37.036;2023-02-03T03:15:06;98655.38;;;1.86;70.60
72798;BME280;61084;55.816;37.036;2023-02-03T03:17:38;98651.81;;;1.90;70.93
72798;BME280;61084;55.816;37.036;2023-02-03T03:20:08;98655.25;;;1.90;70.51
72798;BME280;61084;55.816;37.036;2023-02-03T03:22:40;98656.91;;;1.93;70.40
72798;BME280;61084;55.816;37.036;2023-02-03T03:25:17;98657.75;;;1.93;70.87
72798;BME280;61084;55.816;37.036;2023-02-03T03:27:49;98656.09;;;1.91;70.45
72798;BME280;61084;55.816;37.036;2023-02-03T03:30:21;98653.41;;;1.94;70.45
72798;BME280;61084;55.816;37.036;2023-02-03T03:32:48;98657.69;;;1.95;70.75
72798;BME280;61084;55.816;37.036;2023-02-03T03:35:15;98656.84;;;1.94;70.75
72798;BME280;61084;55.816;37.036;2023-02-03T03:37:58;98658.53;;;1.95;70.84
72798;BME280;61084;55.816;37.036;2023-02-03T03:40:33;98664.53;;;1.97;70.48
72798;BME280;61084;55.816;37.036;2023-02-03T03:43:09;98660.28;;;1.95;70.86
72798;BME280;61084;55.816;37.036;2023-02-03T03:46:15;98661.13;;;1.95;70.64
72798;BME280;61084;55.816;37.036;2023-02-03T03:48:56;98660.22;;;1.96;70.34
72798;BME280;61084;55.816;37.036;2023-02-03T03:51:48;98660.22;;;1.96;70.40
72798;BME280;61084;55.816;37.036;2023-02-03T03:54:18;98661.97;;;1.96;70.72
72798;BME280;61084;55.816;37.036;2023-02-03T03:56:52;98662.81;;;1.96;70.46
72798;BME280;61084;55.816;37.036;2023-02-03T03:59:23;98667.09;;;1.97;70.41
72798;BME280;61084;55.816;37.036;2023-02-03T04:01:50;98661.94;;;1.97;70.39
72798;BME280;61084;55.816;37.036;2023-02-03T04:04:17;98667.84;;;2.01;70.96
72798;BME280;61084;55.816;37.036;2023-02-03T04:06:44;98668.66;;;2.03;70.40
72798;BME280;61084;55.816;37.036;2023-02-03T04:09:09;98658.34;;;2.01;70.51
72798;BME280;61084;55.816;37.036;2023-02-03T04:11:35;98665.19;;;2.04;70.60
72798;BME280;61084;55.816;37.036;2023-02-03T04:14:20;98666.03;;;2.04;70.86
72798;BME280;61084;55.816;37.036;2023-02-03T04:16:46;98660.88;;;2.03;70.81
72798;BME280;61084;55.816;37.036;2023-02-03T04:19:11;98663.47;;;2.03;70.46
72798;BME280;61084;55.816;37.036;2023-02-03T04:21:37;98666.06;;;2.03;70.73
72798;BME280;61084;55.816;37.036;2023-02-03T04:24:03;98669.44;;;2.05;70.84
72798;BME280;61084;55.816;37.036;2023-02-03T04:26:29;98666.84;;;2.05;70.55
72798;BME280;61084;55.816;37.036;2023-02-03T04:28:55;98666.84;;;2.05;70.52
72798;BME280;61084;55.816;37.036;2023-02-03T04:31:21;98667.66;;;2.07;70.90
72798;BME280;61084;55.816;37.036;2023-02-03T04:33:46;98667.66;;;2.07;70.97
72798;BME280;61084;55.816;37.036;2023-02-03T04:36:12;98668.50;;;2.07;70.50
72798;BME280;61084;55.816;37.036;2023-02-03T04:38:38;98669.38;;;2.08;70.93
72798;BME280;61084;55.816;37.036;2023-02-03T04:41:03;98662.41;;;2.10;70.78
72798;BME280;61084;55.816;37.036;2023-02-03T04:43:29;98663.28;;;2.09;70.79
72798;BME280;61084;55.816;37.036;2023-02-03T04:45:58;98659.88;;;2.08;70.79
72798;BME280;61084;55.816;37.036;2023-02-03T04:48:24;98663.38;;;2.06;70.54
72798;BME280;61084;55.816;37.036;2023-02-03T04:50:50;98664.25;;;2.05;70.58
72798;BME280;61084;55.816;37.036;2023-02-03T04:53:15;98668.56;;;2.06;70.67
72798;BME280;61084;55.816;37.036;2023-02-03T04:55:45;98670.28;;;2.05;71.08
72798;BME280;61084;55.816;37.036;2023-02-03T04:58:12;98665.06;;;2.07;70.91
72798;BME280;61084;55.816;37.036;2023-02-03T05:00:38;98665.91;;;2.07;70.55
72798;BME280;61084;55.816;37.036;2023-02-03T05:03:03;98666.78;;;2.08;70.99
72798;BME280;61084;55.816;37.036;2023-02-03T05:05:29;98677.94;;;2.10;70.98
72798;BME280;61084;55.816;37.036;2023-02-03T05:07:55;98670.09;;;2.11;70.82
72798;BME280;61084;55.816;37.036;2023-02-03T05:10:20;98670.97;;;2.12;70.90
72798;BME280;61084;55.816;37.036;2023-02-03T05:12:46;98666.63;;;2.12;71.01
72798;BME280;61084;55.816;37.036;2023-02-03T05:15:12;98664.00;;;2.14;70.91
72798;BME280;61084;55.816;37.036;2023-02-03T05:17:38;98675.19;;;2.14;70.54
72798;BME280;61084;55.816;37.036;2023-02-03T05:20:05;98669.22;;;2.12;71.07
72798;BME280;61084;55.816;37.036;2023-02-03T05:22:31;98675.13;;;2.16;70.90
72798;BME280;61084;55.816;37.036;2023-02-03T05:25:00;98672.56;;;2.16;70.80
72798;BME280;61084;55.816;37.036;2023-02-03T05:27:25;98669.09;;;2.17;70.85
72798;BME280;61084;55.816;37.036;2023-02-03T05:29:51;98666.50;;;2.17;70.70
72798;BME280;61084;55.816;37.036;2023-02-03T05:32:17;98666.50;;;2.17;70.46
72798;BME280;61084;55.816;37.036;2023-02-03T05:34:43;98672.53;;;2.17;70.80
72798;BME280;61084;55.816;37.036;2023-02-03T05:37:08;98670.81;;;2.16;70.80
72798;BME280;61084;55.816;37.036;2023-02-03T05:39:34;98669.94;;;2.17;70.63
72798;BME280;61084;55.816;37.036;2023-02-03T05:42:00;98666.44;;;2.18;70.31
72798;BME280;61084;55.816;37.036;2023-02-03T05:44:28;98671.63;;;2.18;70.76
72798;BME280;61084;55.816;37.036;2023-02-03T05:46:55;98671.63;;;2.18;70.54
72798;BME280;61084;55.816;37.036;2023-02-03T05:49:22;98675.06;;;2.19;70.46
72798;BME280;61084;55.816;37.036;2023-02-03T05:51:49;98674.19;;;2.18;70.81
72798;BME280;61084;55.816;37.036;2023-02-03T05:54:15;98672.53;;;2.17;70.49
72798;BME280;61084;55.816;37.036;2023-02-03T05:56:41;98666.50;;;2.17;70.79
72798;BME280;61084;55.816;37.036;2023-02-03T05:59:07;98671.47;;;2.23;70.46
72798;BME280;61084;55.816;37.036;2023-02-03T06:01:34;98673.97;;;2.26;70.59
72798;BME280;61084;55.816;37.036;2023-02-03T06:04:01;98669.63;;;2.26;70.81
72798;BME280;61084;55.816;37.036;2023-02-03T06:06:28;98673.81;;;2.30;70.68
72798;BME280;61084;55.816;37.036;2023-02-03T06:09:07;98664.28;;;2.33;70.24
72798;BME280;61084;55.816;37.036;2023-02-03T06:11:34;98671.19;;;2.32;70.16
72798;BME280;61084;55.816;37.036;2023-02-03T06:14:00;98667.75;;;2.32;70.55
72798;BME280;61084;55.816;37.036;2023-02-03T06:16:27;98662.47;;;2.35;70.58
72798;BME280;61084;55.816;37.036;2023-02-03T06:18:54;98666.75;;;2.36;70.33
72798;BME280;61084;55.816;37.036;2023-02-03T06:21:22;98669.25;;;2.39;70.36
72798;BME280;61084;55.816;37.036;2023-02-03T06:23:48;98670.03;;;2.41;70.53
72798;BME280;61084;55.816;37.036;2023-02-03T06:26:14;98673.56;;;2.38;69.96
72798;BME280;61084;55.816;37.036;2023-02-03T06:28:40;98677.03;;;2.39;70.01
72798;BME280;61084;55.816;37.036;2023-02-03T06:31:06;98676.09;;;2.40;70.50
72798;BME280;61084;55.816;37.036;2023-02-03T06:33:32;98672.56;;;2.42;70.06
72798;BME280;61084;55.816;37.036;2023-02-03T06:35:58;98675.09;;;2.44;70.01
72798;BME280;61084;55.816;37.036;2023-02-03T06:38:24;98679.25;;;2.49;69.98
72798;BME280;61084;55.816;37.036;2023-02-03T06:40:49;98681.78;;;2.51;70.10
72798;BME280;61084;55.816;37.036;2023-02-03T06:43:16;98674.81;;;2.53;69.83
72798;BME280;61084;55.816;37.036;2023-02-03T06:45:45;98673.03;;;2.55;69.86
72798;BME280;61084;55.816;37.036;2023-02-03T06:48:12;98678.84;;;2.61;70.22
72798;BME280;61084;55.816;37.036;2023-02-03T06:50:38;98677.06;;;2.63;69.76
72798;BME280;61084;55.816;37.036;2023-02-03T06:53:03;98672.56;;;2.68;70.04
72798;BME280;61084;55.816;37.036;2023-02-03T06:55:29;98672.56;;;2.68;69.85
72798;BME280;61084;55.816;37.036;2023-02-03T06:57:55;98673.38;;;2.70;69.29
72798;BME280;61084;55.816;37.036;2023-02-03T07:00:21;98669.94;;;2.70;69.19
72798;BME280;61084;55.816;37.036;2023-02-03T07:02:57;98660.53;;;2.67;69.23
72798;BME280;61084;55.816;37.036;2023-02-03T07:05:24;98664.81;;;2.68;69.22
72798;BME280;61084;55.816;37.036;2023-02-03T07:07:52;98665.56;;;2.72;69.50
72798;BME280;61084;55.816;37.036;2023-02-03T07:10:18;98665.50;;;2.73;69.50
72798;BME280;61084;55.816;37.036;2023-02-03T07:12:43;98664.59;;;2.74;69.00
72798;BME280;61084;55.816;37.036;2023-02-03T07:15:10;98667.41;;;2.68;68.47
72798;BME280;61084;55.816;37.036;2023-02-03T07:17:37;98664.97;;;2.64;68.76
72798;BME280;61084;55.816;37.036;2023-02-03T07:20:03;98660.56;;;2.66;68.87
72798;BME280;61084;55.816;37.036;2023-02-03T07:22:29;98667.41;;;2.68;68.98
72798;BME280;61084;55.816;37.036;2023-02-03T07:24:55;98669.91;;;2.71;68.72
72798;BME280;61084;55.816;37.036;2023-02-03T07:27:21;98667.19;;;2.74;68.57
72798;BME280;61084;55.816;37.036;2023-02-03T07:29:47;98667.16;;;2.76;68.82
72798;BME280;61084;55.816;37.036;2023-02-03T07:32:13;98669.69;;;2.77;68.72
72798;BME280;61084;55.816;37.036;2023-02-03T07:34:39;98670.53;;;2.78;68.70
72798;BME280;61084;55.816;37.036;2023-02-03T07:37:05;98670.41;;;2.81;68.73
72798;BME280;61084;55.816;37.036;2023-02-03T07:39:31;98669.47;;;2.83;68.40
72798;BME280;61084;55.816;37.036;2023-02-03T07:41:57;98674.44;;;2.89;68.88
72798;BME280;61084;55.816;37.036;2023-02-03T07:44:25;98670.97;;;2.90;69.01
72798;BME280;61084;55.816;37.036;2023-02-03T07:46:52;98671.75;;;2.92;68.80
72798;BME280;61084;55.816;37.036;2023-02-03T07:49:17;98670.88;;;2.93;68.92
72798;BME280;61084;55.816;37.036;2023-02-03T07:51:43;98677.72;;;2.94;68.87
72798;BME280;61084;55.816;37.036;2023-02-03T07:54:09;98670.81;;;2.95;68.99
72798;BME280;61084;55.816;37.036;2023-02-03T07:56:35;98669.81;;;2.99;69.04
72798;BME280;61084;55.816;37.036;2023-02-03T07:59:01;98667.13;;;3.02;68.87
72798;BME280;61084;55.816;37.036;2023-02-03T08:01:27;98667.06;;;3.03;69.15
72798;BME280;61084;55.816;37.036;2023-02-03T08:03:53;98670.38;;;3.07;68.76
72798;BME280;61084;55.816;37.036;2023-02-03T08:06:18;98673.72;;;3.11;69.18
72798;BME280;61084;55.816;37.036;2023-02-03T08:08:44;98672.78;;;3.13;69.09
72798;BME280;61084;55.816;37.036;2023-02-03T08:11:10;98670.22;;;3.12;69.08
72798;BME280;61084;55.816;37.036;2023-02-03T08:13:36;98669.28;;;3.14;68.85
72798;BME280;61084;55.816;37.036;2023-02-03T08:16:02;98671.88;;;3.14;68.94
72798;BME280;61084;55.816;37.036;2023-02-03T08:18:27;98669.19;;;3.17;68.67
72798;BME280;61084;55.816;37.036;2023-02-03T08:20:53;98660.44;;;3.20;69.13
72798;BME280;61084;55.816;37.036;2023-02-03T08:23:19;98666.44;;;3.22;69.21
72798;BME280;61084;55.816;37.036;2023-02-03T08:25:49;98667.22;;;3.24;69.18
72798;BME280;61084;55.816;37.036;2023-02-03T08:28:15;98676.56;;;3.28;69.18
72798;BME280;61084;55.816;37.036;2023-02-03T08:30:41;98670.38;;;3.32;68.85
72798;BME280;61084;55.816;37.036;2023-02-03T08:33:07;98666.84;;;3.34;68.71
72798;BME280;61084;55.816;37.036;2023-02-03T08:35:32;98663.31;;;3.35;68.85
72798;BME280;61084;55.816;37.036;2023-02-03T08:37:58;98672.75;;;3.38;68.79
72798;BME280;61084;55.816;37.036;2023-02-03T08:40:24;98663.94;;;3.42;69.14
72798;BME280;61084;55.816;37.036;2023-02-03T08:42:50;98673.31;;;3.46;68.81
72798;BME280;61084;55.816;37.036;2023-02-03T08:45:16;98663.91;;;3.43;69.16
72798;BME280;61084;55.816;37.036;2023-02-03T08:47:41;98664.88;;;3.41;68.82
72798;BME280;61084;55.816;37.036;2023-02-03T08:50:08;98667.38;;;3.42;69.15
72798;BME280;61084;55.816;37.036;2023-02-03T08:52:34;98665.59;;;3.44;69.10
72798;BME280;61084;55.816;37.036;2023-02-03T08:55:00;98661.19;;;3.46;69.28
72798;BME280;61084;55.816;37.036;2023-02-03T08:57:31;98661.09;;;3.49;69.38
72798;BME280;61084;55.816;37.036;2023-02-03T08:59:58;98655.84;;;3.51;69.26
72798;BME280;61084;55.816;37.036;2023-02-03T09:02:23;98660.16;;;3.50;69.07
72798;BME280;61084;55.816;37.036;2023-02-03T09:04:49;98660.16;;;3.50;69.15
72798;BME280;61084;55.816;37.036;2023-02-03T09:07:16;98654.81;;;3.55;69.06
72798;BME280;61084;55.816;37.036;2023-02-03T09:09:42;98654.03;;;3.53;69.32
72798;BME280;61084;55.816;37.036;2023-02-03T09:12:08;98647.94;;;3.54;69.13
72798;BME280;61084;55.816;37.036;2023-02-03T09:14:35;98655.56;;;3.58;69.05
72798;BME280;61084;55.816;37.036;2023-02-03T09:17:02;98653.63;;;3.63;68.86
72798;BME280;61084;55.816;37.036;2023-02-03T09:19:30;98658.78;;;3.65;69.44
72798;BME280;61084;55.816;37.036;2023-02-03T09:21:56;98648.28;;;3.68;69.13
72798;BME280;61084;55.816;37.036;2023-02-03T09:24:22;98654.06;;;3.74;69.38
72798;BME280;61084;55.816;37.036;2023-02-03T09:26:50;98654.69;;;3.81;68.98
72798;BME280;61084;55.816;37.036;2023-02-03T09:29:18;98655.38;;;3.86;69.12
72798;BME280;61084;55.816;37.036;2023-02-03T09:31:43;98650.19;;;3.86;69.36
72798;BME280;61084;55.816;37.036;2023-02-03T09:34:11;98645.66;;;3.91;69.23
72798;BME280;61084;55.816;37.036;2023-02-03T09:36:37;98645.44;;;3.97;69.37
72798;BME280;61084;55.816;37.036;2023-02-03T09:39:03;98646.03;;;4.04;69.01
72798;BME280;61084;55.816;37.036;2023-02-03T09:46:59;98644.75;;;4.14;68.68
72798;BME280;61084;55.816;37.036;2023-02-03T09:49:49;98641.31;;;4.13;68.54
72798;BME280;61084;55.816;37.036;2023-02-03T09:52:31;98639.53;;;4.15;68.93
72798;BME280;61084;55.816;37.036;2023-02-03T09:55:10;98638.69;;;4.15;68.66
72798;BME280;61084;55.816;37.036;2023-02-03T09:57:51;98638.59;;;4.16;68.81
72798;BME280;61084;55.816;37.036;2023-02-03T10:11:55;98638.25;;;4.25;68.16
72798;BME280;61084;55.816;37.036;2023-02-03T10:14:49;98641.72;;;4.24;68.72
72798;BME280;61084;55.816;37.036;2023-02-03T10:22:33;98641.88;;;4.21;68.26
72798;BME280;61084;55.816;37.036;2023-02-03T10:27:40;98644.47;;;4.21;68.35
72798;BME280;61084;55.816;37.036;2023-02-03T10:30:19;98640.94;;;4.22;68.51
72798;BME280;61084;55.816;37.036;2023-02-03T10:32:49;98635.75;;;4.22;68.62
72798;BME280;61084;55.816;37.036;2023-02-03T10:35:17;98628.81;;;4.23;68.40
72798;BME280;61084;55.816;37.036;2023-02-03T10:37:48;98634.88;;;4.23;68.69
72798;BME280;61084;55.816;37.036;2023-02-03T10:40:15;98626.94;;;4.26;68.93
72798;BME280;61084;55.816;37.036;2023-02-03T10:42:42;98634.50;;;4.32;68.45
72798;BME280;61084;55.816;37.036;2023-02-03T10:45:30;98635.94;;;4.39;68.87
72798;BME280;61084;55.816;37.036;2023-02-03T10:47:58;98626.38;;;4.40;68.55
72798;BME280;61084;55.816;37.036;2023-02-03T10:50:25;98621.97;;;4.42;68.33
72798;BME280;61084;55.816;37.036;2023-02-03T10:55:49;98614.44;;;4.36;67.89
72798;BME280;61084;55.816;37.036;2023-02-03T10:58:23;98609.16;;;4.37;68.11
72798;BME280;61084;55.816;37.036;2023-02-03T11:01:08;98609.06;;;4.40;67.74
72798;BME280;61084;55.816;37.036;2023-02-03T11:03:35;98604.75;;;4.39;67.65
72798;BME280;61084;55.816;37.036;2023-02-03T11:06:11;98602.03;;;4.42;68.11
72798;BME280;61084;55.816;37.036;2023-02-03T11:08:41;98609.72;;;4.45;68.16
72798;BME280;61084;55.816;37.036;2023-02-03T11:11:12;98599.25;;;4.47;67.58
72798;BME280;61084;55.816;37.036;2023-02-03T11:13:38;98595.09;;;4.43;67.58
72798;BME280;61084;55.816;37.036;2023-02-03T11:16:09;98598.66;;;4.40;67.45
72798;BME280;61084;55.816;37.036;2023-02-03T11:24:17;98605.00;;;4.33;67.81
72798;BME280;61084;55.816;37.036;2023-02-03T11:26:56;98606.75;;;4.33;67.73
72798;BME280;61084;55.816;37.036;2023-02-03T11:31:52;98608.53;;;4.32;67.69
72798;BME280;61084;55.816;37.036;2023-02-03T11:34:24;98604.16;;;4.33;67.42
72798;BME280;61084;55.816;37.036;2023-02-03T11:36:51;98602.38;;;4.35;67.37
72798;BME280;61084;55.816;37.036;2023-02-03T11:39:25;98605.00;;;4.33;67.50
72798;BME280;61084;55.816;37.036;2023-02-03T11:41:52;98608.53;;;4.32;67.73
72798;BME280;61084;55.816;37.036;2023-02-03T11:44:26;98605.16;;;4.30;67.73
72798;BME280;61084;55.816;37.036;2023-02-03T11:47:01;98605.94;;;4.32;67.42
72798;BME280;61084;55.816;37.036;2023-02-03T11:49:46;98609.31;;;4.34;67.97
72798;BME280;61084;55.816;37.036;2023-02-03T11:52:35;98598.91;;;4.34;67.60
72798;BME280;61084;55.816;37.036;2023-02-03T11:55:26;98604.13;;;4.34;67.69
72798;BME280;61084;55.816;37.036;2023-02-03T12:12:00;98590.47;;;4.29;68.09
72798;BME280;61084;55.816;37.036;2023-02-03T12:28:31;98601.34;;;4.17;68.26
72798;BME280;61084;55.816;37.036;2023-02-03T12:33:47;98594.56;;;4.13;68.09
72798;BME280;61084;55.816;37.036;2023-02-03T12:36:25;98592.03;;;4.12;68.65
72798;BME280;61084;55.816;37.036;2023-02-03T12:39:00;98593.78;;;4.11;68.89
72798;BME280;61084;55.816;37.036;2023-02-03T12:41:34;98598.19;;;4.09;68.61
72798;BME280;61084;55.816;37.036;2023-02-03T12:44:17;98598.97;;;4.11;68.79
72798;BME280;61084;55.816;37.036;2023-02-03T12:46:51;98590.41;;;4.09;68.46
72798;BME280;61084;55.816;37.036;2023-02-03T12:49:34;98600.78;;;4.09;68.89
72798;BME280;61084;55.816;37.036;2023-02-03T12:52:26;98596.53;;;4.08;68.82
72798;BME280;61084;55.816;37.036;2023-02-03T13:00:29;98602.94;;;4.00;68.68
72798;BME280;61084;55.816;37.036;2023-02-03T13:08:36;98601.28;;;3.97;68.92
72798;BME280;61084;55.816;37.036;2023-02-03T13:11:27;98600.50;;;3.95;69.29
72798;BME280;61084;55.816;37.036;2023-02-03T13:14:17;98599.72;;;3.93;69.34
72798;BME280;61084;55.816;37.036;2023-02-03T13:16:50;98596.28;;;3.93;69.04
72798;BME280;61084;55.816;37.036;2023-02-03T13:19:21;98600.75;;;3.89;69.42
72798;BME280;61084;55.816;37.036;2023-02-03T13:21:49;98599.06;;;3.88;69.42
72798;BME280;61084;55.816;37.036;2023-02-03T13:24:16;98600.94;;;3.85;69.33
72798;BME280;61084;55.816;37.036;2023-02-03T13:38:26;98605.88;;;3.69;69.35
72798;BME280;61084;55.816;37.036;2023-02-03T13:43:35;98604.22;;;3.66;69.59
72798;BME280;61084;55.816;37.036;2023-02-03T13:46:04;98600.84;;;3.64;69.37
72798;BME280;61084;55.816;37.036;2023-02-03T13:48:32;98599.22;;;3.62;69.54
72798;BME280;61084;55.816;37.036;2023-02-03T13:51:05;98602.72;;;3.61;69.51
72798;BME280;61084;55.816;37.036;2023-02-03T13:53:39;98597.41;;;3.64;69.73
72798;BME280;61084;55.816;37.036;2023-02-03T13:56:07;98600.91;;;3.63;69.48
72798;BME280;61084;55.816;37.036;2023-02-03T13:58:38;98601.03;;;3.60;69.31
72798;BME280;61084;55.816;37.036;2023-02-03T14:03:49;98614.09;;;3.57;69.62
72798;BME280;61084;55.816;37.036;2023-02-03T14:11:45;98612.75;;;3.47;69.69
72798;BME280;61084;55.816;37.036;2023-02-03T14:16:38;98606.78;;;3.45;69.72
72798;BME280;61084;55.816;37.036;2023-02-03T14:19:12;98611.97;;;3.45;69.71
72798;BME280;61084;55.816;37.036;2023-02-03T14:21:52;98606.00;;;3.43;69.91
72798;BME280;61084;55.816;37.036;2023-02-03T14:24:19;98599.06;;;3.43;69.94
72798;BME280;61084;55.816;37.036;2023-02-03T14:26:49;98613.84;;;3.41;69.95
72798;BME280;61084;55.816;37.036;2023-02-03T14:29:28;98602.72;;;3.38;70.10
72798;BME280;61084;55.816;37.036;2023-02-03T14:31:59;98603.56;;;3.38;69.94
72798;BME280;61084;55.816;37.036;2023-02-03T14:34:51;98601.94;;;3.36;69.93
72798;BME280;61084;55.816;37.036;2023-02-03T14:37:24;98607.13;;;3.36;69.98
72798;BME280;61084;55.816;37.036;2023-02-03T14:42:38;98614.00;;;3.37;69.99
72798;BME280;61084;55.816;37.036;2023-02-03T14:45:27;98606.22;;;3.37;69.61
72798;BME280;61084;55.816;37.036;2023-02-03T14:54:20;98607.97;;;3.36;69.86
72798;BME280;61084;55.816;37.036;2023-02-03T15:02:28;98613.25;;;3.33;70.15
72798;BME280;61084;55.816;37.036;2023-02-03T15:07:48;98609.00;;;3.32;70.33
72798;BME280;61084;55.816;37.036;2023-02-03T15:10:18;98607.25;;;3.33;70.06
72798;BME280;61084;55.816;37.036;2023-02-03T15:12:49;98616.78;;;3.32;70.61
72798;BME280;61084;55.816;37.036;2023-02-03T15:17:49;98607.28;;;3.31;70.20
72798;BME280;61084;55.816;37.036;2023-02-03T15:20:38;98607.41;;;3.28;70.60
72798;BME280;61084;55.816;37.036;2023-02-03T15:23:29;98601.38;;;3.28;70.80
72798;BME280;61084;55.816;37.036;2023-02-03T15:26:00;98615.19;;;3.28;70.71
72798;BME280;61084;55.816;37.036;2023-02-03T15:28:28;98614.44;;;3.25;70.64
72798;BME280;61084;55.816;37.036;2023-02-03T15:31:21;98617.94;;;3.24;70.66
72798;BME280;61084;55.816;37.036;2023-02-03T15:33:50;98611.19;;;3.20;70.45
72798;BME280;61084;55.816;37.036;2023-02-03T15:36:21;98619.84;;;3.19;70.51
72798;BME280;61084;55.816;37.036;2023-02-03T15:38:53;98612.94;;;3.19;70.63